Flight Track Log - Related Links

Times and Time Zones

All times are in EDT time to prevent confusion due to time zone crossing. See the ASH2739 flight status page for this flight to view local times or setup timezone preferences in your user account.

Time Position Orientation Groundspeed Altitude Reporting Facility
EDT Latitude Longitude Course Direction KTS MPH feet Rate Location/Type
Fri 12:13:27 PM 33.4333 -111.9667 164° South 168 193 2,700  Level Phoenix TRACON
Fri 12:14:34 PM 33.4333 -111.8833 90° East 237 273 4,900 2,220 Climbing Phoenix TRACON
Fri 12:15:07 PM 33.4300 -111.8472 96° East 240 276 6,400 2,968 Climbing Albuquerque Center
Fri 12:16:00 PM 33.0966 -111.9450 168° South  Level FlightAware Approximate
Fri 12:16:09 PM 33.3697 -111.8022 148° Southeast 282 325 9,600  Level Albuquerque Center
Fri 12:17:00 PM 33.0137 -111.9212 164° South  Level FlightAware Approximate
Fri 12:17:11 PM 33.2847 -111.8117 185° South 302 348 12,000  Level Albuquerque Center
Fri 12:18:00 PM 32.8939 -111.9035 164° South  Level FlightAware Approximate
Fri 12:18:13 PM 33.1933 -111.8353 192° South 328 377 14,800  Level Albuquerque Center
Fri 12:19:15 PM 33.0969 -111.8581 191° South 345 397 16,900 1,065 Climbing Albuquerque Center
Fri 12:20:17 PM 32.9669 -111.8897 192° South 389 448 17,000 48 Climbing Albuquerque Center
Fri 12:21:19 PM 32.8606 -111.8644 169° South 410 472 17,000 -387 Level Albuquerque Center
Fri 12:22:21 PM 32.7700 -111.7872 144° Southeast 404 465 16,200 -968 Descending Albuquerque Center
Fri 12:23:23 PM 32.6797 -111.7067 143° Southeast 407 468 15,000 -1,299 Descending Albuquerque Center
Fri 12:23:58 PM 32.6161 -111.6528 144° Southeast 395 455 14,100 -1,180 Descending Albuquerque Center
Fri 12:24:24 PM 32.5944 -111.6297 138° Southeast 394 453 13,800 -1,129 Descending Albuquerque Center
Fri 12:25:23 PM 32.5092 -111.5394 138° Southeast 374 430 12,500 -1,258 Descending Albuquerque Center
Fri 12:26:28 PM 32.4475 -111.4303 124° Southeast 369 425 11,200 -887 Descending Albuquerque Center
Fri 12:27:18 PM 32.3989 -111.3544 127° Southeast 350 403 10,800 -743 Descending Albuquerque Center
Fri 12:28:13 PM 32.3567 -111.2797 124° Southeast 297 342 9,900 -973 Descending Albuquerque Center
Fri 12:28:32 PM 32.3472 -111.2611 121° Southeast 297 342 9,600 -986 Descending Albuquerque Center
Fri 12:29:26 PM 32.3056 -111.1928 126° Southeast 266 306 8,700 -1,065 Descending Albuquerque Center
Fri 12:30:36 PM 32.2675 -111.1214 122° Southeast 257 296 7,400 -1,357 Descending Albuquerque Center
Fri 12:31:21 PM 32.2311 -111.0742 132° Southeast 221 254 6,100 -1,733 Descending Albuquerque Center

Login

Don't have an account? Register now (free) for customized features, flight alerts, and more!